Time;durP1;ratioP1;P1;durP2;ratioP2;P2;SDS_P1;SDS_P2;PMS_P1;PMS_P2;Temp;Humidity;BMP_temperature;BMP_pressure;BME280_temperature;BME280_humidity;BME280_pressure;Samples;Min_cycle;Max_cycle;Signal;HPM_P1;HPM_P2
2024/03/17 00:03:29;;;;;;;1.80;1.45;;;;;;;;;;10408781;28;20064;-73
2024/03/17 00:08:32;;;;;;;4.70;1.70;;;;;;;;;;10402632;28;20045;-73
2024/03/17 00:13:36;;;;;;;6.95;1.70;;;;;;;;;;10414303;28;20068;-73
2024/03/17 00:18:38;;;;;;;2.83;1.17;;;;;;;;;;10416811;28;20383;-72
2024/03/17 00:23:41;;;;;;;8.88;1.75;;;;;;;;;;10445583;28;20158;-72
2024/03/17 00:28:48;;;;;;;3.90;1.30;;;;;;;;;;10422693;28;20087;-72
2024/03/17 00:33:53;;;;;;;2.50;1.40;;;;;;;;;;10408650;28;20038;-73
2024/03/17 00:38:55;;;;;;;2.45;1.60;;;;;;;;;;10423595;28;20048;-72
2024/03/17 00:44:00;;;;;;;2.15;1.60;;;;;;;;;;10425786;28;20064;-72
2024/03/17 00:49:03;;;;;;;2.97;1.92;;;;;;;;;;10412219;28;20045;-72
2024/03/17 00:54:06;;;;;;;4.30;2.20;;;;;;;;;;10402023;28;20047;-72
2024/03/17 00:59:10;;;;;;;2.42;1.70;;;;;;;;;;10419186;28;20049;-72
2024/03/17 01:04:12;;;;;;;3.03;1.70;;;;;;;;;;10420863;28;20049;-72
2024/03/17 01:09:14;;;;;;;4.35;2.20;;;;;;;;;;10429771;28;20045;-73
2024/03/17 01:14:18;;;;;;;2.13;1.63;;;;;;;;;;10435713;28;20049;-73
2024/03/17 01:19:20;;;;;;;4.05;2.33;;;;;;;;;;10423525;28;20033;-73
2024/03/17 01:24:24;;;;;;;3.65;1.90;;;;;;;;;;10413395;28;20045;-73
2024/03/17 01:29:28;;;;;;;2.28;1.60;;;;;;;;;;10417899;28;20037;-73
2024/03/17 01:34:30;;;;;;;2.72;1.80;;;;;;;;;;10412375;28;20566;-72
2024/03/17 01:39:33;;;;;;;1.83;1.58;;;;;;;;;;10419598;28;20054;-72
2024/03/17 01:44:37;;;;;;;4.22;1.77;;;;;;;;;;10410500;28;20040;-72
2024/03/17 01:49:39;;;;;;;1.90;1.33;;;;;;;;;;10418254;28;20037;-73
2024/03/17 01:54:42;;;;;;;2.60;1.50;;;;;;;;;;10411979;28;20064;-73
2024/03/17 01:59:47;;;;;;;1.58;1.40;;;;;;;;;;10418504;28;20051;-73
2024/03/17 02:04:49;;;;;;;1.13;1.02;;;;;;;;;;10397225;28;20029;-73
2024/03/17 02:09:52;;;;;;;2.00;1.30;;;;;;;;;;10422136;28;20048;-73
2024/03/17 02:14:56;;;;;;;1.95;1.35;;;;;;;;;;10406354;28;20041;-73
2024/03/17 02:19:58;;;;;;;1.48;1.17;;;;;;;;;;10406081;28;20666;-73
2024/03/17 02:25:02;;;;;;;1.45;1.30;;;;;;;;;;10411924;28;20394;-74
2024/03/17 02:30:08;;;;;;;1.75;1.45;;;;;;;;;;10401154;28;20125;-73
2024/03/17 02:35:11;;;;;;;3.33;1.42;;;;;;;;;;10421973;28;20034;-73
2024/03/17 02:40:15;;;;;;;1.65;1.33;;;;;;;;;;10420801;28;20533;-73
2024/03/17 02:45:18;;;;;;;1.75;1.50;;;;;;;;;;10422243;28;20048;-73
2024/03/17 02:50:20;;;;;;;1.55;1.45;;;;;;;;;;10395527;28;20049;-73
2024/03/17 02:55:25;;;;;;;1.95;1.40;;;;;;;;;;10404640;28;20043;-73
2024/03/17 03:00:29;;;;;;;1.48;1.38;;;;;;;;;;10410613;28;20029;-72
2024/03/17 03:05:32;;;;;;;2.05;1.80;;;;;;;;;;10417216;28;20040;-72
2024/03/17 03:10:36;;;;;;;4.95;2.80;;;;;;;;;;10413283;28;20067;-72
2024/03/17 03:15:38;;;;;;;3.45;2.10;;;;;;;;;;10410329;28;20037;-72
2024/03/17 03:20:40;;;;;;;3.30;1.95;;;;;;;;;;10396453;28;20049;-73
2024/03/17 03:25:44;;;;;;;2.22;1.65;;;;;;;;;;10413644;28;20041;-73
2024/03/17 03:30:47;;;;;;;2.35;1.33;;;;;;;;;;10407804;28;20409;-73
2024/03/17 03:35:50;;;;;;;2.17;1.50;;;;;;;;;;10401745;28;20045;-73
2024/03/17 03:40:54;;;;;;;1.60;1.38;;;;;;;;;;10426836;28;20045;-72
2024/03/17 03:45:56;;;;;;;3.03;1.73;;;;;;;;;;10409868;28;20052;-72
2024/03/17 03:50:59;;;;;;;2.00;1.55;;;;;;;;;;10412096;28;20057;-73
2024/03/17 03:56:06;;;;;;;3.05;1.60;;;;;;;;;;10412871;28;20044;-73
2024/03/17 04:01:11;;;;;;;2.42;1.67;;;;;;;;;;10415590;28;20124;-72
2024/03/17 04:06:14;;;;;;;2.25;1.52;;;;;;;;;;10410339;28;20049;-72
2024/03/17 04:11:18;;;;;;;4.50;2.47;;;;;;;;;;10422793;28;20037;-72
2024/03/17 04:16:21;;;;;;;3.55;1.95;;;;;;;;;;10419656;28;20127;-72
2024/03/17 04:21:24;;;;;;;6.63;2.90;;;;;;;;;;10440716;28;20044;-73
2024/03/17 04:26:27;;;;;;;7.43;3.15;;;;;;;;;;10419379;28;20052;-73
2024/03/17 04:31:30;;;;;;;7.38;3.40;;;;;;;;;;10410426;28;20041;-73
2024/03/17 04:36:32;;;;;;;7.75;3.53;;;;;;;;;;10422337;28;20410;-72
2024/03/17 04:41:38;;;;;;;8.40;3.83;;;;;;;;;;10414640;28;20047;-73
2024/03/17 04:46:40;;;;;;;9.10;3.45;;;;;;;;;;10439382;28;20043;-73
2024/03/17 04:51:42;;;;;;;5.63;3.25;;;;;;;;;;10410765;28;20045;-73
2024/03/17 04:56:47;;;;;;;4.40;2.83;;;;;;;;;;10410551;28;20407;-72
2024/03/17 05:01:49;;;;;;;4.00;2.03;;;;;;;;;;10412474;28;20042;-72
2024/03/17 05:06:51;;;;;;;3.70;2.28;;;;;;;;;;10421113;28;20561;-73
2024/03/17 05:11:55;;;;;;;2.70;1.60;;;;;;;;;;10431003;28;20044;-72
2024/03/17 05:16:58;;;;;;;2.05;1.70;;;;;;;;;;10423096;28;20052;-72
2024/03/17 05:22:00;;;;;;;2.13;1.50;;;;;;;;;;10450047;22;20048;-75
2024/03/17 05:27:05;;;;;;;1.98;1.70;;;;;;;;;;10471787;28;20120;-75
2024/03/17 05:32:07;;;;;;;1.92;1.35;;;;;;;;;;10428978;28;20042;-75
2024/03/17 05:37:10;;;;;;;1.83;1.50;;;;;;;;;;10441637;28;20047;-75
2024/03/17 05:42:13;;;;;;;3.00;1.70;;;;;;;;;;10403701;28;20698;-75
2024/03/17 05:47:17;;;;;;;2.05;1.70;;;;;;;;;;10383057;28;20052;-75
2024/03/17 05:52:19;;;;;;;4.53;1.90;;;;;;;;;;10405491;28;20135;-75
2024/03/17 05:57:24;;;;;;;1.83;1.33;;;;;;;;;;10401680;28;20051;-75
2024/03/17 06:02:26;;;;;;;2.85;1.60;;;;;;;;;;10437466;28;20588;-75
2024/03/17 06:07:28;;;;;;;3.05;1.45;;;;;;;;;;10413488;28;20140;-75
2024/03/17 06:12:32;;;;;;;1.80;1.60;;;;;;;;;;10403485;28;20583;-75
2024/03/17 06:17:35;;;;;;;1.73;1.63;;;;;;;;;;10411440;28;20107;-75
2024/03/17 06:22:37;;;;;;;2.03;1.60;;;;;;;;;;10390289;28;20044;-75
2024/03/17 06:27:42;;;;;;;2.45;1.85;;;;;;;;;;10410301;28;20042;-75
2024/03/17 06:32:46;;;;;;;2.65;2.00;;;;;;;;;;10389411;28;20049;-75
2024/03/17 06:37:48;;;;;;;2.30;1.60;;;;;;;;;;10411698;28;20043;-75
2024/03/17 06:42:53;;;;;;;2.55;1.55;;;;;;;;;;10403845;28;20446;-75
2024/03/17 06:47:56;;;;;;;2.60;1.55;;;;;;;;;;10411918;28;20046;-75
2024/03/17 06:52:58;;;;;;;2.22;1.70;;;;;;;;;;10395707;28;20122;-75
2024/03/17 06:58:03;;;;;;;3.08;2.08;;;;;;;;;;10384550;28;20045;-75
2024/03/17 07:03:06;;;;;;;2.53;1.65;;;;;;;;;;10405266;28;20081;-75
2024/03/17 07:08:08;;;;;;;2.30;1.70;;;;;;;;;;10397468;28;20046;-75
2024/03/17 07:13:12;;;;;;;2.78;2.30;;;;;;;;;;10404635;28;20199;-75
2024/03/17 07:18:15;;;;;;;2.78;2.17;;;;;;;;;;10403639;28;20028;-75
2024/03/17 07:23:17;;;;;;;1.67;1.48;;;;;;;;;;10400589;28;20517;-75
2024/03/17 07:28:21;;;;;;;3.08;2.10;;;;;;;;;;10415388;28;20130;-74
2024/03/17 07:33:25;;;;;;;2.08;1.70;;;;;;;;;;10416219;28;20134;-75
2024/03/17 07:38:28;;;;;;;2.28;1.63;;;;;;;;;;10398485;28;20039;-75
2024/03/17 07:43:33;;;;;;;2.13;1.45;;;;;;;;;;10380039;28;20047;-75
2024/03/17 07:48:37;;;;;;;2.00;1.60;;;;;;;;;;10400505;28;20040;-75
2024/03/17 07:53:41;;;;;;;1.70;1.55;;;;;;;;;;10388284;28;20054;-75
2024/03/17 07:58:47;;;;;;;2.10;1.75;;;;;;;;;;10398457;28;20498;-75
2024/03/17 08:03:55;;;;;;;;;;;;;;;;;;10378211;28;20054;-75
2024/03/17 08:08:57;;;;;;;2.65;1.42;;;;;;;;;;10407049;28;20395;-75
2024/03/17 08:14:02;;;;;;;2.60;1.38;;;;;;;;;;10441363;28;20105;-75
2024/03/17 08:19:06;;;;;;;1.63;1.20;;;;;;;;;;10418689;28;20047;-75
2024/03/17 08:24:09;;;;;;;2.55;1.27;;;;;;;;;;10415906;28;20085;-75
2024/03/17 08:29:13;;;;;;;2.10;1.83;;;;;;;;;;10436467;28;20524;-76
2024/03/17 08:34:15;;;;;;;1.83;1.60;;;;;;;;;;10397530;28;20074;-76
2024/03/17 08:39:18;;;;;;;1.60;1.30;;;;;;;;;;10401594;28;20044;-76
2024/03/17 08:44:22;;;;;;;1.20;1.10;;;;;;;;;;10395296;28;20445;-76
2024/03/17 08:49:26;;;;;;;2.67;1.40;;;;;;;;;;10399249;28;20369;-75
2024/03/17 08:54:28;;;;;;;1.92;1.05;;;;;;;;;;10405085;28;20685;-76
2024/03/17 08:59:32;;;;;;;2.45;1.42;;;;;;;;;;10376304;28;20050;-76
2024/03/17 09:04:35;;;;;;;1.40;1.02;;;;;;;;;;10377472;28;20451;-76
2024/03/17 09:09:37;;;;;;;1.70;1.20;;;;;;;;;;10394563;28;20044;-76
2024/03/17 09:14:41;;;;;;;1.85;1.40;;;;;;;;;;10395443;28;20047;-76
2024/03/17 09:19:44;;;;;;;2.42;1.60;;;;;;;;;;10425527;28;20338;-75
2024/03/17 09:24:47;;;;;;;3.95;1.80;;;;;;;;;;10407992;28;20057;-76
2024/03/17 09:29:50;;;;;;;2.42;1.60;;;;;;;;;;10400043;28;20081;-75
2024/03/17 09:34:53;;;;;;;1.63;1.33;;;;;;;;;;10404347;28;20049;-76
2024/03/17 09:39:57;;;;;;;1.52;1.02;;;;;;;;;;10417230;28;20129;-76
2024/03/17 09:45:00;;;;;;;4.07;1.30;;;;;;;;;;10396409;28;20450;-76
2024/03/17 09:50:04;;;;;;;2.83;2.28;;;;;;;;;;10416192;28;20046;-75
2024/03/17 09:55:13;;;;;;;2.50;1.67;;;;;;;;;;10413440;28;20139;-75
2024/03/17 10:00:17;;;;;;;2.10;1.45;;;;;;;;;;10432053;28;20031;-76
2024/03/17 10:05:21;;;;;;;2.55;1.50;;;;;;;;;;10405945;28;21441;-76
2024/03/17 10:10:24;;;;;;;2.28;1.70;;;;;;;;;;10378368;28;20121;-76
2024/03/17 10:15:28;;;;;;;2.67;1.35;;;;;;;;;;10413586;28;20048;-76
2024/03/17 10:20:30;;;;;;;2.65;1.50;;;;;;;;;;10351878;28;20045;-76
2024/03/17 10:25:34;;;;;;;1.30;1.15;;;;;;;;;;10421055;28;20048;-76
2024/03/17 10:30:37;;;;;;;2.08;1.63;;;;;;;;;;10423928;28;20580;-76
2024/03/17 10:35:41;;;;;;;2.05;1.85;;;;;;;;;;10406305;28;20046;-75
2024/03/17 10:40:43;;;;;;;2.28;1.30;;;;;;;;;;10430068;28;20103;-76
2024/03/17 10:45:47;;;;;;;1.40;0.98;;;;;;;;;;10427679;28;20046;-76
2024/03/17 10:50:52;;;;;;;2.35;1.30;;;;;;;;;;10407257;28;20047;-76
2024/03/17 10:56:08;;;;;;;2.93;1.93;;;;;;;;;;10398710;28;20489;-74
2024/03/17 11:01:14;;;;;;;2.97;1.77;;;;;;;;;;10387395;28;20038;-75
2024/03/17 11:06:19;;;;;;;2.47;1.65;;;;;;;;;;10381999;28;20078;-76
2024/03/17 11:11:39;;;;;;;2.05;1.90;;;;;;;;;;10384347;28;20046;-75
2024/03/17 11:16:43;;;;;;;2.50;1.88;;;;;;;;;;10366213;28;20353;-76
2024/03/17 11:21:45;;;;;;;2.88;1.95;;;;;;;;;;10506954;22;20044;-73
2024/03/17 11:26:48;;;;;;;2.42;1.60;;;;;;;;;;10503183;28;20036;-73
2024/03/17 11:31:55;;;;;;;1.98;1.77;;;;;;;;;;10461383;28;20080;-73
2024/03/17 11:36:58;;;;;;;1.90;1.45;;;;;;;;;;10460809;28;20048;-74
2024/03/17 11:42:10;;;;;;;2.33;1.50;;;;;;;;;;10437385;28;20045;-74
2024/03/17 11:47:14;;;;;;;3.53;1.70;;;;;;;;;;10461730;28;20089;-73
2024/03/17 11:52:18;;;;;;;2.08;1.50;;;;;;;;;;10463310;28;20044;-73
2024/03/17 11:57:23;;;;;;;2.72;1.75;;;;;;;;;;10458328;28;20683;-73
2024/03/17 12:02:31;;;;;;;5.13;1.97;;;;;;;;;;10460549;28;20036;-73
2024/03/17 12:07:42;;;;;;;2.45;1.73;;;;;;;;;;10461856;28;20044;-73
2024/03/17 12:12:48;;;;;;;1.92;1.73;;;;;;;;;;10459157;28;20057;-73
2024/03/17 12:17:54;;;;;;;;;;;;;;;;;;10465994;28;20041;-73
2024/03/17 12:22:57;;;;;;;2.05;1.25;;;;;;;;;;10452685;28;19920;-73
2024/03/17 12:28:00;;;;;;;2.30;1.60;;;;;;;;;;10457695;28;20036;-73
2024/03/17 12:33:04;;;;;;;2.00;1.77;;;;;;;;;;10467128;28;20037;-73
2024/03/17 12:38:21;;;;;;;2.25;1.85;;;;;;;;;;10433516;28;20052;-76
2024/03/17 12:43:24;;;;;;;3.63;1.65;;;;;;;;;;10458842;28;20063;-73
2024/03/17 12:48:27;;;;;;;3.55;1.75;;;;;;;;;;10460498;28;20032;-73
2024/03/17 12:53:30;;;;;;;2.45;1.40;;;;;;;;;;10466353;28;20040;-73
2024/03/17 13:03:53;;;;;;;1.77;1.42;;;;;;;;;;10467948;28;20041;-73
2024/03/17 13:08:56;;;;;;;4.60;1.77;;;;;;;;;;10469771;28;20040;-73
2024/03/17 13:13:58;;;;;;;1.10;1.00;;;;;;;;;;10472911;28;20049;-73
2024/03/17 13:19:02;;;;;;;2.08;1.80;;;;;;;;;;10456152;28;20044;-73
2024/03/17 13:24:05;;;;;;;2.95;1.50;;;;;;;;;;10431509;28;20037;-73
2024/03/17 13:29:07;;;;;;;2.78;1.42;;;;;;;;;;10429909;28;20029;-73
2024/03/17 13:34:11;;;;;;;2.28;1.38;;;;;;;;;;10427795;28;20055;-73
2024/03/17 13:39:15;;;;;;;1.48;1.10;;;;;;;;;;10427932;28;20037;-73
2024/03/17 13:44:20;;;;;;;1.35;0.80;;;;;;;;;;10423195;28;20045;-73
2024/03/17 13:49:23;;;;;;;2.00;1.55;;;;;;;;;;10439012;28;20729;-73
2024/03/17 13:54:26;;;;;;;1.30;1.20;;;;;;;;;;10428015;28;20041;-73
2024/03/17 13:59:28;;;;;;;1.05;0.95;;;;;;;;;;10430696;28;20713;-73
2024/03/17 14:04:32;;;;;;;2.65;1.95;;;;;;;;;;10429458;28;20548;-73
2024/03/17 14:09:34;;;;;;;2.13;1.52;;;;;;;;;;10429479;28;20033;-73
2024/03/17 14:14:37;;;;;;;4.47;2.50;;;;;;;;;;10427218;28;20029;-73
2024/03/17 14:19:40;;;;;;;1.92;1.35;;;;;;;;;;10439412;28;20037;-73
2024/03/17 14:24:43;;;;;;;2.33;1.52;;;;;;;;;;10464818;28;20051;-73
2024/03/17 14:29:45;;;;;;;1.77;1.30;;;;;;;;;;10460076;28;20044;-73
2024/03/17 14:34:49;;;;;;;1.30;1.20;;;;;;;;;;10446515;28;20048;-73
2024/03/17 14:39:53;;;;;;;2.20;1.63;;;;;;;;;;10468517;28;20037;-73
2024/03/17 14:44:55;;;;;;;2.22;1.20;;;;;;;;;;10457782;28;20033;-73
2024/03/17 14:49:59;;;;;;;1.60;1.00;;;;;;;;;;10463251;28;20036;-73
2024/03/17 14:55:02;;;;;;;2.38;1.90;;;;;;;;;;10462614;28;20052;-73
2024/03/17 15:00:13;;;;;;;3.13;1.85;;;;;;;;;;10461429;28;20044;-73
2024/03/17 15:05:18;;;;;;;2.53;1.60;;;;;;;;;;10456635;28;20044;-73
2024/03/17 15:10:21;;;;;;;3.13;1.50;;;;;;;;;;10463668;28;20098;-73
2024/03/17 15:15:23;;;;;;;1.67;1.50;;;;;;;;;;10459931;28;20044;-73
2024/03/17 15:20:27;;;;;;;1.75;1.20;;;;;;;;;;10443559;28;20052;-73
2024/03/17 15:25:29;;;;;;;3.58;1.70;;;;;;;;;;10460502;28;20041;-73
2024/03/17 15:30:32;;;;;;;2.85;1.60;;;;;;;;;;10454353;28;20045;-73
2024/03/17 15:35:37;;;;;;;4.22;2.08;;;;;;;;;;10461055;28;20049;-73
2024/03/17 15:40:39;;;;;;;1.70;1.23;;;;;;;;;;10460548;28;20444;-73
2024/03/17 15:45:42;;;;;;;1.27;1.17;;;;;;;;;;10462090;28;20052;-73
2024/03/17 15:50:55;;;;;;;2.65;1.20;;;;;;;;;;10463894;28;20044;-73
2024/03/17 15:55:58;;;;;;;1.33;1.13;;;;;;;;;;10459157;28;20075;-73
2024/03/17 16:01:05;;;;;;;3.70;1.60;;;;;;;;;;10444029;28;20779;-73
2024/03/17 16:06:12;;;;;;;2.15;1.33;;;;;;;;;;10460596;28;20109;-73
2024/03/17 16:11:17;;;;;;;1.35;0.95;;;;;;;;;;10439633;28;20056;-73
2024/03/17 16:16:19;;;;;;;1.10;1.00;;;;;;;;;;10467850;28;20037;-73
2024/03/17 16:21:25;;;;;;;3.60;2.22;;;;;;;;;;10465640;28;20041;-73
2024/03/17 16:26:28;;;;;;;4.38;2.70;;;;;;;;;;10468602;28;20036;-73
2024/03/17 16:31:31;;;;;;;2.83;2.10;;;;;;;;;;10469032;28;20406;-73
2024/03/17 16:36:38;;;;;;;2.50;1.85;;;;;;;;;;10470730;28;20677;-73
2024/03/17 16:41:41;;;;;;;4.50;2.80;;;;;;;;;;10468839;28;20735;-73
2024/03/17 16:47:25;;;;;;;2.85;2.50;;;;;;;;;;10470248;28;20043;-74
2024/03/17 16:52:29;;;;;;;3.42;2.67;;;;;;;;;;10452737;28;20509;-73
2024/03/17 16:57:31;;;;;;;4.55;3.05;;;;;;;;;;10468918;28;20044;-73
2024/03/17 17:02:34;;;;;;;4.00;2.90;;;;;;;;;;10470868;28;20047;-73
2024/03/17 17:07:37;;;;;;;5.50;2.92;;;;;;;;;;10484432;28;20041;-73
2024/03/17 17:12:41;;;;;;;4.70;3.90;;;;;;;;;;10469259;28;20040;-73
2024/03/17 17:17:49;;;;;;;4.25;2.70;;;;;;;;;;10468981;28;20044;-73
2024/03/17 17:22:53;;;;;;;3.90;3.03;;;;;;;;;;10469871;28;20114;-73
2024/03/17 17:27:55;;;;;;;4.15;3.25;;;;;;;;;;10472092;28;20060;-73
2024/03/17 17:32:58;;;;;;;6.63;4.00;;;;;;;;;;10470749;28;20422;-73
2024/03/17 17:38:03;;;;;;;6.97;4.07;;;;;;;;;;10462922;28;20052;-73
2024/03/17 17:43:05;;;;;;;6.45;4.00;;;;;;;;;;10471438;28;20032;-73
2024/03/17 17:48:08;;;;;;;6.47;4.38;;;;;;;;;;10468739;28;20059;-73
2024/03/17 17:53:12;;;;;;;6.25;4.10;;;;;;;;;;10471619;28;20067;-73
2024/03/17 17:58:14;;;;;;;5.25;3.60;;;;;;;;;;10471269;28;20037;-73
2024/03/17 18:03:16;;;;;;;4.70;3.35;;;;;;;;;;10473660;28;20082;-73
2024/03/17 18:08:20;;;;;;;5.00;3.80;;;;;;;;;;10468330;28;20060;-73
2024/03/17 18:13:26;;;;;;;4.97;3.65;;;;;;;;;;10473604;28;20040;-73
2024/03/17 18:18:31;;;;;;;5.13;3.83;;;;;;;;;;10468815;28;20041;-73
2024/03/17 18:23:35;;;;;;;6.30;4.73;;;;;;;;;;10468271;28;20486;-73
2024/03/17 18:28:38;;;;;;;7.25;4.80;;;;;;;;;;10466159;28;20051;-73
2024/03/17 18:33:43;;;;;;;6.80;4.55;;;;;;;;;;10469615;28;20675;-73
2024/03/17 18:38:48;;;;;;;5.72;4.25;;;;;;;;;;10466487;28;20044;-73
2024/03/17 18:43:52;;;;;;;5.68;3.70;;;;;;;;;;10467337;28;20580;-73
2024/03/17 18:48:55;;;;;;;4.68;3.75;;;;;;;;;;10464941;28;20044;-73
2024/03/17 18:53:59;;;;;;;5.10;4.10;;;;;;;;;;10468671;28;20060;-73
2024/03/17 18:59:01;;;;;;;6.43;3.72;;;;;;;;;;10468436;28;20048;-73
2024/03/17 19:04:04;;;;;;;5.80;4.20;;;;;;;;;;10469028;28;20048;-73
2024/03/17 19:09:07;;;;;;;5.88;4.03;;;;;;;;;;10468298;28;20090;-73
2024/03/17 19:14:11;;;;;;;5.30;3.80;;;;;;;;;;10463763;28;20045;-73
2024/03/17 19:19:13;;;;;;;5.55;3.22;;;;;;;;;;10461649;28;20044;-73
2024/03/17 19:24:18;;;;;;;5.25;3.55;;;;;;;;;;10432986;28;20279;-74
2024/03/17 19:29:21;;;;;;;5.15;3.90;;;;;;;;;;10432629;28;20071;-73
2024/03/17 19:34:24;;;;;;;6.40;4.00;;;;;;;;;;10439496;28;20502;-73
2024/03/17 19:39:28;;;;;;;6.03;4.20;;;;;;;;;;10431568;28;20055;-73
2024/03/17 19:44:31;;;;;;;7.07;3.67;;;;;;;;;;10432328;28;20044;-73
2024/03/17 19:49:34;;;;;;;5.72;4.03;;;;;;;;;;10432802;28;20048;-73
2024/03/17 19:54:37;;;;;;;4.60;3.80;;;;;;;;;;10432954;28;20037;-73
2024/03/17 19:59:40;;;;;;;6.35;4.35;;;;;;;;;;10427447;28;20086;-73
2024/03/17 20:04:42;;;;;;;5.95;4.00;;;;;;;;;;10432552;28;20057;-73
2024/03/17 20:09:46;;;;;;;6.95;4.40;;;;;;;;;;10442336;28;20059;-73
2024/03/17 20:14:49;;;;;;;5.78;3.88;;;;;;;;;;10441681;28;20048;-73
2024/03/17 20:19:51;;;;;;;4.88;3.72;;;;;;;;;;10451104;28;20052;-73
2024/03/17 20:25:01;;;;;;;5.55;4.13;;;;;;;;;;10473341;28;20028;-73
2024/03/17 20:30:04;;;;;;;6.68;4.13;;;;;;;;;;10466742;28;20036;-73
2024/03/17 20:35:09;;;;;;;4.53;3.53;;;;;;;;;;10477126;28;20501;-73
2024/03/17 20:40:14;;;;;;;5.60;4.10;;;;;;;;;;10476544;28;20037;-73
2024/03/17 20:45:17;;;;;;;6.05;3.85;;;;;;;;;;10476868;28;20041;-73
2024/03/17 20:50:21;;;;;;;7.05;3.88;;;;;;;;;;10474096;28;20048;-73
2024/03/17 20:55:25;;;;;;;4.68;3.60;;;;;;;;;;10471699;28;20068;-73
2024/03/17 21:00:30;;;;;;;5.00;4.13;;;;;;;;;;10464994;28;20052;-73
2024/03/17 21:05:33;;;;;;;5.70;3.97;;;;;;;;;;10474262;28;20132;-73
2024/03/17 21:10:37;;;;;;;8.25;4.32;;;;;;;;;;10459701;28;20087;-73
2024/03/17 21:15:42;;;;;;;7.40;4.82;;;;;;;;;;10474021;28;20045;-73
2024/03/17 21:20:44;;;;;;;8.73;5.70;;;;;;;;;;10476851;28;20033;-73
2024/03/17 21:25:48;;;;;;;7.20;5.13;;;;;;;;;;10468164;28;20040;-73
2024/03/17 21:30:58;;;;;;;8.02;5.00;;;;;;;;;;10473944;28;20417;-73
2024/03/17 21:36:04;;;;;;;5.80;4.28;;;;;;;;;;10473884;28;20131;-74
2024/03/17 21:41:13;;;;;;;7.73;4.97;;;;;;;;;;10469416;28;20033;-73
2024/03/17 21:46:16;;;;;;;7.68;4.88;;;;;;;;;;10467562;28;20052;-73
2024/03/17 21:51:18;;;;;;;7.93;4.78;;;;;;;;;;10468043;28;20033;-73
2024/03/17 21:56:22;;;;;;;7.57;5.10;;;;;;;;;;10465517;28;20685;-73
2024/03/17 22:01:25;;;;;;;6.00;4.78;;;;;;;;;;10461907;28;20425;-73
2024/03/17 22:06:27;;;;;;;8.30;5.55;;;;;;;;;;10460116;28;20056;-73
2024/03/17 22:11:31;;;;;;;7.63;5.03;;;;;;;;;;10463603;28;20048;-73
2024/03/17 22:16:33;;;;;;;8.10;5.32;;;;;;;;;;10448769;28;20760;-73
2024/03/17 22:21:36;;;;;;;7.18;5.25;;;;;;;;;;10470712;28;20041;-73
2024/03/17 22:26:40;;;;;;;6.30;4.38;;;;;;;;;;10463077;28;20052;-73
2024/03/17 22:31:43;;;;;;;7.40;4.25;;;;;;;;;;10450335;28;20114;-73
2024/03/17 22:36:45;;;;;;;8.70;5.47;;;;;;;;;;10464264;28;20239;-73
2024/03/17 22:41:49;;;;;;;7.03;4.65;;;;;;;;;;10464059;28;20036;-73
2024/03/17 22:46:51;;;;;;;8.68;6.28;;;;;;;;;;10466972;28;20873;-73
2024/03/17 22:51:53;;;;;;;6.80;4.78;;;;;;;;;;10455797;28;20110;-73
2024/03/17 22:56:59;;;;;;;6.57;4.40;;;;;;;;;;10457073;28;20110;-73
2024/03/17 23:02:02;;;;;;;6.00;4.47;;;;;;;;;;10468395;28;20040;-73
2024/03/17 23:07:05;;;;;;;7.38;5.25;;;;;;;;;;10447943;28;20056;-73
2024/03/17 23:12:10;;;;;;;7.45;5.38;;;;;;;;;;10464028;28;20047;-73
2024/03/17 23:17:12;;;;;;;10.85;6.05;;;;;;;;;;10452451;28;20040;-73
2024/03/17 23:22:15;;;;;;;8.10;5.60;;;;;;;;;;10551960;22;20075;-72
2024/03/17 23:27:19;;;;;;;8.05;5.55;;;;;;;;;;10458669;28;20713;-72
2024/03/17 23:32:21;;;;;;;8.43;5.32;;;;;;;;;;10455238;28;20044;-72
2024/03/17 23:37:23;;;;;;;8.45;5.63;;;;;;;;;;10452552;28;20036;-72
2024/03/17 23:42:27;;;;;;;6.78;4.90;;;;;;;;;;10457632;28;20033;-72
2024/03/17 23:47:30;;;;;;;7.30;5.40;;;;;;;;;;10458617;28;20048;-72
2024/03/17 23:52:32;;;;;;;8.07;4.78;;;;;;;;;;10453606;28;20052;-73
2024/03/17 23:57:37;;;;;;;8.00;5.30;;;;;;;;;;10452667;28;20646;-72
